NEW MELONES RESERVOIR (NML)

Elevation: 1135' · STANISLAUS R basin · Operator: US Bureau of Reclamation

Provisional data, subject to change.
Query executed Monday at 17:06:00   clock

Select a sensor type for a plot of data.
Note: Reservoir Flows are daily averages.

Earlier

Date RES ELE    STORAGE    RES CHG    TOC STO    ABV TOC    OUTFLOW    INFLOW    EVAP    FNF    RIV REL    PPT INC    SPILL    DIS PWR   
 FEET   AF   AF   AF   AF   CFS   CFS   CFS   CFS   CFS   INCHES   CFS   CFS  
08/23/2014 871.46 567317 -1566 2420000 -1852683 888 154 56 22 0 0.00 0 888
08/24/2014 871.28 566408 -909 2420000 -1853592 583 190 65 61 0 0.00 0 583
08/25/2014 870.95 564743 -1665 2420000 -1855257 869 92 62 -28 0 0.00 0 869
08/26/2014 870.57 562834 -1909 2420000 -1857166 927 20 55 -5677 0 0.00 0 927
08/27/2014 870.33 561629 -1205 2420000 -1858371 838 279 49 5700 0 0.00 0 838
08/28/2014 869.88 559372 -2257 2420000 -1860628 1413 337 62 200 0 0.00 0 1413
08/29/2014 869.51 557523 -1849 2420000 -1862477 1224 360 68 233 0 0.00 0 1224
08/30/2014 869.11 555525 -1998 2420000 -1864475 1323 368 52 232 0 0.00 0 1323
08/31/2014 868.70 553486 -2039 2420000 -1866514 1286 322 64 180 0 0.00 0 1286
09/01/2014 868.12 550604 -2882 2420000 -1869396 1842 448 59 321 0 0.00 0 1842
09/02/2014 867.69 548476 -2128 2420000 -1871524 1396 397 74 309 0 0.00 0 1396
09/03/2014 867.26 546352 -2124 2420000 -1873648 1375 366 62 149 0 0.00 0 1375
09/04/2014 866.98 544969 -1383 2420000 -1875031 994 359 62 229 0 0.00 0 994
09/05/2014 866.59 543053 -1916 2420000 -1876947 1270 366 62 232 0 0.00 0 1270
09/06/2014 866.26 541431 -1622 2420000 -1878569 1146 385 57 250 0 0.00 0 1146
09/07/2014 866.16 540940 -491 2420000 -1879060 530 339 57 206 0 0.00 0 530
09/08/2014 865.78 539079 -1861 2420000 -1880921 1219 343 62 213 0 0.00 0 1219
09/09/2014 865.42 537320 -1759 2420000 -1882680 1218 385 54 255 0 0.00 0 1218
09/10/2014 865.12 535854 -1466 2420000 -1884146 1102 417 54 287 0 0.00 0 1102
09/11/2014 864.79 534248 -1606 2420000 -1885752 1189 439 60 294 0 0.00 0 1189
09/12/2014 864.55 533082 -1166 2420000 -1886918 948 417 57 272 0 0.00 0 948
09/13/2014 864.30 531867 -1215 2420000 -1888133 933 378 58 220 0 0.00 0 933
09/14/2014 864.25 531625 -242 2420000 -1888375 474 423 71 285 0 0.00 0 474
09/15/2014 863.97 530265 -1360 2420000 -1889735 1027 399 58 260 0 0.00 0 1027
09/16/2014 863.74 529154 -1111 2410200 -1881046 920 424 64 284 0 0.00 0 920
09/17/2014 863.52 528091 -1063 2400400 -1872309 903 414 47 264 0 0.00 0 903
09/18/2014 863.32 527124 -967 2390700 -1863576 853 417 52 280 0 0.00 0 853
09/19/2014 862.99 525530 -1594 2380900 -1855370 1089 330 45 199 0 0.00 0 1089
09/20/2014 862.76 524425 -1105 2371100 -1846675 853 340 44 203 0 0.00 0 853
09/21/2014 862.69 524089 -336 2361300 -1837211 480 381 70 264 0 0.00 0 480
09/22/2014 -- -- -- -- -- -- -- -- -- -- -- -- --

Later | Latest

Warning! This data is preliminary and subject to revision.

Download Data Now Download Data Now | Show NML Map | Plot NML Data | 1 Month NML Data | Real-Time NML Data | NML Info